Time;durP1;ratioP1;P1;durP2;ratioP2;P2;SDS_P1;SDS_P2;PMS_P1;PMS_P2;Temp;Humidity;BMP_temperature;BMP_pressure;BME280_temperature;BME280_humidity;BME280_pressure;Samples;Min_cycle;Max_cycle;Signal;HPM_P1;HPM_P2
2024/02/07 00:02:20;;;;;;;14.23;4.20;;;;;;;;;;4992436;28;20092;-67
2024/02/07 00:04:46;;;;;;;21.77;4.80;;;;;;;;;;4994433;28;20023;-67
2024/02/07 00:07:12;;;;;;;10.63;3.38;;;;;;;;;;4993156;28;20039;-67
2024/02/07 00:09:38;;;;;;;9.65;3.72;;;;;;;;;;4993075;28;20109;-68
2024/02/07 00:12:05;;;;;;;14.13;3.72;;;;;;;;;;4995760;28;20137;-67
2024/02/07 00:14:31;;;;;;;13.38;4.15;;;;;;;;;;4996369;28;20424;-67
2024/02/07 00:16:57;;;;;;;7.57;3.25;;;;;;;;;;4982082;28;20054;-67
2024/02/07 00:19:23;;;;;;;20.52;3.25;;;;;;;;;;4992576;28;20053;-68
2024/02/07 00:21:49;;;;;;;7.07;3.33;;;;;;;;;;4987948;28;20042;-68
2024/02/07 00:24:15;;;;;;;9.80;3.63;;;;;;;;;;4995049;28;20029;-67
2024/02/07 00:26:41;;;;;;;12.25;3.63;;;;;;;;;;4984069;28;20113;-67
2024/02/07 00:29:07;;;;;;;9.27;2.88;;;;;;;;;;4993337;28;20065;-65
2024/02/07 00:31:33;;;;;;;12.32;3.55;;;;;;;;;;4989005;28;20026;-68
2024/02/07 00:33:59;;;;;;;14.50;2.85;;;;;;;;;;4994034;28;20516;-67
2024/02/07 00:36:25;;;;;;;7.93;3.10;;;;;;;;;;4991777;28;20030;-67
2024/02/07 00:38:51;;;;;;;4.63;2.92;;;;;;;;;;4991761;28;20049;-65
2024/02/07 00:41:24;;;;;;;9.20;3.00;;;;;;;;;;4990561;28;20457;-66
2024/02/07 00:43:52;;;;;;;9.02;2.88;;;;;;;;;;4991931;28;20400;-65
2024/02/07 00:46:18;;;;;;;7.90;2.75;;;;;;;;;;4988416;28;20021;-67
2024/02/07 00:48:44;;;;;;;5.80;2.60;;;;;;;;;;4991683;28;20022;-67
2024/02/07 00:51:12;;;;;;;12.23;2.63;;;;;;;;;;4996163;28;20023;-65
2024/02/07 00:53:38;;;;;;;9.45;2.60;;;;;;;;;;4996354;28;20442;-66
2024/02/07 00:56:04;;;;;;;11.65;3.22;;;;;;;;;;4998001;28;20022;-66
2024/02/07 00:58:30;;;;;;;11.68;3.90;;;;;;;;;;4993404;28;20173;-66
2024/02/07 01:00:57;;;;;;;9.38;3.13;;;;;;;;;;4993939;28;20110;-67
2024/02/07 01:03:23;;;;;;;12.90;3.22;;;;;;;;;;4995424;28;20047;-66
2024/02/07 01:05:49;;;;;;;10.80;3.20;;;;;;;;;;4992574;28;20635;-66
2024/02/07 01:08:15;;;;;;;8.43;3.05;;;;;;;;;;4993040;28;20038;-66
2024/02/07 01:10:42;;;;;;;15.00;3.40;;;;;;;;;;4993812;28;20095;-65
2024/02/07 01:13:08;;;;;;;12.55;3.08;;;;;;;;;;4995408;28;20614;-65
2024/02/07 01:15:34;;;;;;;17.73;2.88;;;;;;;;;;5003782;28;20034;-66
2024/02/07 01:18:00;;;;;;;6.20;1.95;;;;;;;;;;4993551;28;20034;-66
2024/02/07 01:20:26;;;;;;;8.45;2.67;;;;;;;;;;4993084;28;20488;-66
2024/02/07 01:22:52;;;;;;;8.57;2.75;;;;;;;;;;4993955;28;20153;-66
2024/02/07 01:25:18;;;;;;;7.22;2.47;;;;;;;;;;4990676;28;20030;-66
2024/02/07 01:27:44;;;;;;;10.73;2.75;;;;;;;;;;4992708;28;20026;-66
2024/02/07 01:30:13;;;;;;;4.25;2.13;;;;;;;;;;4989703;28;20129;-66
2024/02/07 01:32:42;;;;;;;7.38;2.40;;;;;;;;;;4983450;28;20532;-66
2024/02/07 01:35:11;;;;;;;7.53;3.08;;;;;;;;;;4994508;28;20122;-65
2024/02/07 01:37:40;;;;;;;7.55;2.35;;;;;;;;;;4992156;28;20034;-66
2024/02/07 01:40:09;;;;;;;10.43;3.75;;;;;;;;;;4987347;28;20041;-64
2024/02/07 01:42:35;;;;;;;12.95;3.35;;;;;;;;;;4988697;28;20023;-65
2024/02/07 01:45:16;;;;;;;8.68;2.60;;;;;;;;;;4990004;28;20101;-66
2024/02/07 01:47:42;;;;;;;10.13;3.05;;;;;;;;;;4994361;28;20046;-66
2024/02/07 01:50:08;;;;;;;13.45;3.30;;;;;;;;;;4997477;28;20038;-65
2024/02/07 01:52:37;;;;;;;12.00;3.55;;;;;;;;;;4992479;28;20060;-65
2024/02/07 01:55:04;;;;;;;10.07;3.90;;;;;;;;;;4996256;28;20065;-65
2024/02/07 01:57:30;;;;;;;10.10;3.13;;;;;;;;;;4989943;28;20034;-65
2024/02/07 01:59:56;;;;;;;5.95;3.00;;;;;;;;;;4991963;28;20404;-65
2024/02/07 02:02:25;;;;;;;13.60;4.22;;;;;;;;;;4989450;28;20061;-67
2024/02/07 02:04:52;;;;;;;9.57;3.40;;;;;;;;;;4996704;28;20154;-65
2024/02/07 02:07:18;;;;;;;7.80;3.60;;;;;;;;;;4991499;28;20475;-67
2024/02/07 02:09:44;;;;;;;12.18;3.92;;;;;;;;;;4995124;28;20042;-65
2024/02/07 02:12:11;;;;;;;8.57;3.75;;;;;;;;;;4996421;28;20114;-65
2024/02/07 02:14:37;;;;;;;15.68;4.20;;;;;;;;;;4992496;28;20033;-67
2024/02/07 02:17:03;;;;;;;7.75;3.58;;;;;;;;;;4993867;28;20567;-66
2024/02/07 02:19:29;;;;;;;16.58;4.15;;;;;;;;;;4992268;28;20037;-66
2024/02/07 02:21:55;;;;;;;12.80;3.30;;;;;;;;;;4992958;28;20026;-64
2024/02/07 02:24:33;;;;;;;8.20;3.45;;;;;;;;;;4993225;28;20037;-67
2024/02/07 02:27:18;;;;;;;13.05;3.10;;;;;;;;;;4991194;28;20101;-67
2024/02/07 02:29:53;;;;;;;6.68;3.58;;;;;;;;;;4991826;28;20037;-67
2024/02/07 02:32:21;;;;;;;12.63;4.03;;;;;;;;;;4994942;28;20041;-66
2024/02/07 02:34:47;;;;;;;10.13;3.42;;;;;;;;;;4985360;28;20034;-68
2024/02/07 02:37:14;;;;;;;9.75;2.72;;;;;;;;;;4992526;28;20091;-65
2024/02/07 02:39:41;;;;;;;15.32;3.25;;;;;;;;;;4991890;28;20033;-67
2024/02/07 02:42:07;;;;;;;13.52;2.95;;;;;;;;;;4994494;28;21004;-68
2024/02/07 02:44:33;;;;;;;15.32;3.28;;;;;;;;;;4991604;28;20504;-68
2024/02/07 02:47:01;;;;;;;12.23;3.58;;;;;;;;;;4995516;28;20037;-68
2024/02/07 02:49:28;;;;;;;14.68;3.03;;;;;;;;;;4995077;28;20511;-68
2024/02/07 02:51:55;;;;;;;7.45;2.85;;;;;;;;;;5000747;28;20030;-68
2024/02/07 02:54:21;;;;;;;14.00;2.88;;;;;;;;;;4990750;28;20026;-65
2024/02/07 02:56:47;;;;;;;8.80;2.90;;;;;;;;;;4994681;28;20523;-66
2024/02/07 02:59:14;;;;;;;11.48;2.83;;;;;;;;;;4991970;28;20113;-68
2024/02/07 03:01:40;;;;;;;8.23;2.53;;;;;;;;;;4999034;28;20027;-68
2024/02/07 03:04:06;;;;;;;8.98;2.85;;;;;;;;;;4998149;28;20030;-68
2024/02/07 03:06:50;;;;;;;6.55;2.70;;;;;;;;;;4996802;28;20035;-67
2024/02/07 03:09:20;;;;;;;9.30;2.55;;;;;;;;;;4995932;28;20022;-67
2024/02/07 03:11:48;;;;;;;10.35;3.10;;;;;;;;;;4989315;28;20433;-66
2024/02/07 03:14:14;;;;;;;12.18;2.95;;;;;;;;;;4989113;28;20468;-66
2024/02/07 03:16:40;;;;;;;13.73;2.75;;;;;;;;;;4994506;28;20043;-67
2024/02/07 03:19:08;;;;;;;5.30;2.55;;;;;;;;;;4994683;28;20109;-68
2024/02/07 03:21:34;;;;;;;10.77;2.90;;;;;;;;;;4996121;28;20100;-67
2024/02/07 03:24:00;;;;;;;6.88;2.30;;;;;;;;;;4988815;28;20089;-67
2024/02/07 03:26:27;;;;;;;6.70;2.63;;;;;;;;;;4992763;28;20042;-66
2024/02/07 03:28:53;;;;;;;8.27;2.53;;;;;;;;;;4994297;28;20502;-67
2024/02/07 03:31:19;;;;;;;6.00;2.47;;;;;;;;;;4999805;28;20038;-68
2024/02/07 03:33:45;;;;;;;9.75;2.08;;;;;;;;;;4992783;28;20455;-67
2024/02/07 03:36:11;;;;;;;6.28;2.15;;;;;;;;;;4992486;28;20038;-67
2024/02/07 03:38:37;;;;;;;4.05;1.63;;;;;;;;;;4998215;28;20044;-68
2024/02/07 03:41:05;;;;;;;4.40;2.10;;;;;;;;;;4999442;28;20480;-67
2024/02/07 03:43:33;;;;;;;6.88;1.83;;;;;;;;;;4992671;28;20397;-67
2024/02/07 03:46:00;;;;;;;2.90;1.73;;;;;;;;;;4997857;28;20018;-69
2024/02/07 03:48:26;;;;;;;7.72;2.03;;;;;;;;;;4995539;28;20030;-68
2024/02/07 03:50:52;;;;;;;3.58;2.10;;;;;;;;;;4995020;28;20102;-69
2024/02/07 03:53:19;;;;;;;7.70;2.10;;;;;;;;;;4989579;28;20077;-67
2024/02/07 03:55:47;;;;;;;3.88;2.25;;;;;;;;;;4999585;28;20085;-67
2024/02/07 03:58:13;;;;;;;5.10;1.75;;;;;;;;;;4999262;28;20038;-68
2024/02/07 04:00:39;;;;;;;3.53;1.70;;;;;;;;;;4995187;28;20030;-68
2024/02/07 04:03:05;;;;;;;7.30;1.58;;;;;;;;;;4992300;28;20026;-67
2024/02/07 04:05:32;;;;;;;5.55;1.83;;;;;;;;;;4989905;28;20042;-66
2024/02/07 04:07:58;;;;;;;5.88;1.67;;;;;;;;;;4995089;28;20026;-68
2024/02/07 04:10:24;;;;;;;6.68;1.73;;;;;;;;;;4992954;28;20389;-66
2024/02/07 05:15:44;;;;;;;2.55;1.95;;;;;;;;;;4985456;28;20037;-68
2024/02/07 05:18:10;;;;;;;5.60;2.47;;;;;;;;;;4994247;28;20033;-68
2024/02/07 05:20:36;;;;;;;2.60;1.75;;;;;;;;;;4980579;28;20081;-67
2024/02/07 05:23:02;;;;;;;4.57;1.80;;;;;;;;;;4999121;28;20101;-66
2024/02/07 05:25:32;;;;;;;9.10;1.60;;;;;;;;;;4983697;28;20456;-66
2024/02/07 05:27:58;;;;;;;3.47;1.58;;;;;;;;;;5001194;28;20018;-67
2024/02/07 05:30:24;;;;;;;2.55;1.80;;;;;;;;;;4987000;28;20083;-67
2024/02/07 05:32:50;;;;;;;4.03;1.90;;;;;;;;;;4986318;28;20035;-67
2024/02/07 05:35:16;;;;;;;13.02;4.38;;;;;;;;;;4983077;28;20058;-66
2024/02/07 05:37:42;;;;;;;6.95;4.43;;;;;;;;;;4988750;28;20085;-66
2024/02/07 05:40:08;;;;;;;11.68;4.70;;;;;;;;;;4989086;28;20065;-66
2024/02/07 05:42:34;;;;;;;8.48;4.55;;;;;;;;;;4989023;28;20041;-68
2024/02/07 05:45:00;;;;;;;6.47;3.30;;;;;;;;;;4986651;28;20030;-66
2024/02/07 05:47:26;;;;;;;6.60;3.58;;;;;;;;;;4988596;28;20034;-67
2024/02/07 05:49:52;;;;;;;6.13;2.55;;;;;;;;;;4982965;28;20030;-66
2024/02/07 05:52:19;;;;;;;4.57;2.30;;;;;;;;;;4988009;28;20083;-65
2024/02/07 05:54:49;;;;;;;5.65;1.58;;;;;;;;;;4986863;28;20026;-67
2024/02/07 05:57:15;;;;;;;4.38;1.42;;;;;;;;;;4988086;28;20056;-67
2024/02/07 05:59:41;;;;;;;3.30;0.90;;;;;;;;;;4998038;28;20022;-67
2024/02/07 06:02:07;;;;;;;7.72;1.10;;;;;;;;;;4982238;28;20054;-68
2024/02/07 06:04:36;;;;;;;2.67;1.00;;;;;;;;;;4985028;28;20113;-67
2024/02/07 06:07:02;;;;;;;3.83;1.50;;;;;;;;;;4988761;28;20468;-66
2024/02/07 06:09:28;;;;;;;5.95;1.30;;;;;;;;;;4982722;28;20030;-66
2024/02/07 06:11:55;;;;;;;3.85;0.98;;;;;;;;;;4988308;28;20084;-67
2024/02/07 06:14:21;;;;;;;4.97;0.85;;;;;;;;;;4982937;28;20023;-65
2024/02/07 06:16:47;;;;;;;1.73;0.90;;;;;;;;;;4988434;28;20488;-67
2024/02/07 06:19:13;;;;;;;4.40;1.00;;;;;;;;;;4985576;28;20034;-60
2024/02/07 06:21:39;;;;;;;8.07;1.55;;;;;;;;;;4986840;28;20030;-61
2024/02/07 06:24:05;;;;;;;6.40;1.83;;;;;;;;;;4987824;28;20029;-62
2024/02/07 06:26:31;;;;;;;8.32;1.90;;;;;;;;;;4992495;28;20041;-60
2024/02/07 06:28:57;;;;;;;4.22;2.15;;;;;;;;;;4987679;28;20026;-60
2024/02/07 06:31:23;;;;;;;6.22;2.78;;;;;;;;;;4988087;28;20101;-59
2024/02/07 06:33:48;;;;;;;10.25;2.80;;;;;;;;;;4981678;28;20081;-61
2024/02/07 06:36:14;;;;;;;8.77;3.50;;;;;;;;;;4993864;28;20029;-60
2024/02/07 06:38:40;;;;;;;7.30;3.47;;;;;;;;;;4992679;28;20030;-60
2024/02/07 06:41:06;;;;;;;6.28;3.17;;;;;;;;;;4989402;28;20118;-61
2024/02/07 06:43:32;;;;;;;5.60;3.78;;;;;;;;;;4988529;28;20543;-61
2024/02/07 06:45:58;;;;;;;9.73;4.13;;;;;;;;;;4989448;28;20214;-60
2024/02/07 06:48:24;;;;;;;6.68;4.50;;;;;;;;;;4998556;28;20448;-60
2024/02/07 06:50:51;;;;;;;10.13;4.40;;;;;;;;;;4992824;28;20121;-60
2024/02/07 06:53:17;;;;;;;9.18;5.30;;;;;;;;;;4995092;28;20030;-62
2024/02/07 06:55:43;;;;;;;8.13;5.45;;;;;;;;;;4996632;28;20081;-59
2024/02/07 06:58:09;;;;;;;14.90;6.70;;;;;;;;;;5001504;28;20073;-61
2024/02/07 07:00:35;;;;;;;15.15;7.13;;;;;;;;;;4989616;28;20097;-60
2024/02/07 07:03:01;;;;;;;11.70;6.75;;;;;;;;;;4997896;28;20130;-60
2024/02/07 07:05:27;;;;;;;13.52;7.47;;;;;;;;;;4995751;28;20030;-60
2024/02/07 07:07:53;;;;;;;10.93;7.10;;;;;;;;;;4994751;28;20034;-59
2024/02/07 07:10:19;;;;;;;14.35;7.85;;;;;;;;;;4993616;28;20031;-59
2024/02/07 07:12:46;;;;;;;17.15;7.90;;;;;;;;;;4994639;28;20157;-59
2024/02/07 07:15:13;;;;;;;13.88;8.15;;;;;;;;;;4994763;28;20119;-61
2024/02/07 07:17:39;;;;;;;13.63;7.85;;;;;;;;;;4999926;28;20034;-61
2024/02/07 07:20:05;;;;;;;16.52;8.35;;;;;;;;;;4993237;28;20018;-60
2024/02/07 07:22:32;;;;;;;14.38;8.27;;;;;;;;;;5001010;28;20026;-60
2024/02/07 07:24:58;;;;;;;13.25;8.05;;;;;;;;;;4992821;28;20045;-60
2024/02/07 07:27:24;;;;;;;17.23;9.13;;;;;;;;;;5005761;28;20468;-59
2024/02/07 07:29:50;;;;;;;18.58;8.68;;;;;;;;;;4988322;28;20365;-60
2024/02/07 07:32:16;;;;;;;16.85;8.52;;;;;;;;;;5001400;28;20091;-62
2024/02/07 07:34:42;;;;;;;15.95;8.65;;;;;;;;;;4999254;28;20030;-60
2024/02/07 07:37:08;;;;;;;19.40;8.68;;;;;;;;;;5004672;28;20037;-58
2024/02/07 07:39:35;;;;;;;16.40;8.95;;;;;;;;;;4998983;28;20048;-60
2024/02/07 07:42:01;;;;;;;12.80;7.93;;;;;;;;;;4998800;28;20485;-60
2024/02/07 07:44:27;;;;;;;14.25;8.07;;;;;;;;;;4992141;28;20027;-57
2024/02/07 07:46:53;;;;;;;16.25;9.20;;;;;;;;;;5000376;28;20153;-59
2024/02/07 07:49:19;;;;;;;15.98;8.30;;;;;;;;;;4996847;28;20129;-60
2024/02/07 07:51:45;;;;;;;22.60;9.15;;;;;;;;;;4991900;28;20030;-59
2024/02/07 07:54:11;;;;;;;14.90;6.72;;;;;;;;;;5002632;28;20026;-60
2024/02/07 07:56:37;;;;;;;14.70;6.82;;;;;;;;;;5001516;28;20129;-59
2024/02/07 07:59:03;;;;;;;13.48;6.28;;;;;;;;;;4995331;28;20078;-61
2024/02/07 08:01:29;;;;;;;14.18;6.60;;;;;;;;;;5002451;28;20035;-60
2024/02/07 08:03:55;;;;;;;15.07;6.38;;;;;;;;;;4998361;28;20061;-59
2024/02/07 08:06:21;;;;;;;13.25;6.38;;;;;;;;;;4999661;28;20368;-59
2024/02/07 08:08:48;;;;;;;15.35;5.60;;;;;;;;;;4997832;28;20022;-60
2024/02/07 08:11:14;;;;;;;9.88;5.35;;;;;;;;;;4998695;28;20520;-59
2024/02/07 08:13:40;;;;;;;12.20;6.10;;;;;;;;;;4999339;28;20532;-59
2024/02/07 08:16:06;;;;;;;18.33;6.43;;;;;;;;;;4992421;28;20034;-60
2024/02/07 08:18:32;;;;;;;16.27;6.95;;;;;;;;;;4992635;28;20030;-60
2024/02/07 08:20:58;;;;;;;16.90;6.07;;;;;;;;;;4993506;28;20160;-58
2024/02/07 08:23:24;;;;;;;10.10;6.28;;;;;;;;;;4996656;28;20093;-59
2024/02/07 08:25:50;;;;;;;14.80;6.47;;;;;;;;;;4993394;28;20037;-59
2024/02/07 08:28:16;;;;;;;14.25;6.60;;;;;;;;;;5002087;28;20026;-60
2024/02/07 08:30:42;;;;;;;14.73;7.80;;;;;;;;;;4994210;28;20172;-59
2024/02/07 08:33:08;;;;;;;20.52;7.35;;;;;;;;;;4995469;28;20042;-58
2024/02/07 08:35:34;;;;;;;16.02;6.90;;;;;;;;;;4992879;28;20118;-59
2024/02/07 08:38:00;;;;;;;14.63;6.45;;;;;;;;;;5004489;28;20049;-60
2024/02/07 08:40:26;;;;;;;16.30;7.60;;;;;;;;;;4996403;28;20065;-60
2024/02/07 08:42:52;;;;;;;16.60;6.65;;;;;;;;;;5001455;28;20027;-59
2024/02/07 08:45:20;;;;;;;17.20;6.50;;;;;;;;;;4988664;28;20401;-60
2024/02/07 08:47:46;;;;;;;15.15;5.80;;;;;;;;;;5000309;28;20069;-59
2024/02/07 08:50:12;;;;;;;12.70;6.60;;;;;;;;;;4998506;28;20042;-60
2024/02/07 08:52:39;;;;;;;14.40;6.35;;;;;;;;;;4992218;28;20551;-59
2024/02/07 08:55:08;;;;;;;21.23;7.03;;;;;;;;;;4991714;28;20032;-59
2024/02/07 08:57:34;;;;;;;15.13;6.53;;;;;;;;;;5000345;28;20030;-58
2024/02/07 09:00:00;;;;;;;18.73;6.50;;;;;;;;;;4994803;28;20026;-60
2024/02/07 09:02:26;;;;;;;18.90;7.78;;;;;;;;;;4996844;28;20442;-59
2024/02/07 09:04:52;;;;;;;14.20;6.28;;;;;;;;;;4989615;28;20030;-59
2024/02/07 09:07:18;;;;;;;14.63;6.22;;;;;;;;;;4993267;28;20087;-59
2024/02/07 09:09:43;;;;;;;17.10;6.68;;;;;;;;;;4991659;28;20033;-58
2024/02/07 09:12:09;;;;;;;13.60;6.57;;;;;;;;;;4998707;28;20054;-58
2024/02/07 09:14:36;;;;;;;14.63;7.13;;;;;;;;;;4993803;28;20024;-58
2024/02/07 09:17:02;;;;;;;15.93;6.80;;;;;;;;;;4999086;28;20107;-59
2024/02/07 09:19:28;;;;;;;14.57;6.88;;;;;;;;;;4996663;28;20030;-59
2024/02/07 09:21:53;;;;;;;14.20;6.78;;;;;;;;;;4991750;28;20045;-59
2024/02/07 09:24:19;;;;;;;15.77;6.20;;;;;;;;;;4995443;28;20030;-60
2024/02/07 09:26:45;;;;;;;14.25;5.60;;;;;;;;;;4993377;28;20033;-59
2024/02/07 09:29:11;;;;;;;14.13;5.35;;;;;;;;;;4993869;28;20042;-60
2024/02/07 09:31:37;;;;;;;13.93;4.72;;;;;;;;;;4994812;28;20030;-57
2024/02/07 09:34:03;;;;;;;16.77;3.72;;;;;;;;;;4993897;28;20519;-59
2024/02/07 09:36:29;;;;;;;7.80;3.78;;;;;;;;;;4996192;28;20077;-59
2024/02/07 09:38:55;;;;;;;10.75;2.63;;;;;;;;;;4992883;28;20022;-60
2024/02/07 09:41:22;;;;;;;13.30;3.13;;;;;;;;;;4998133;28;20057;-57
2024/02/07 09:43:48;;;;;;;10.93;2.42;;;;;;;;;;4995355;28;20097;-61
2024/02/07 09:46:16;;;;;;;14.48;2.30;;;;;;;;;;4991686;28;20031;-61
2024/02/07 09:48:42;;;;;;;11.73;1.98;;;;;;;;;;4991347;28;20030;-60
2024/02/07 09:51:14;;;;;;;8.88;3.00;;;;;;;;;;4996722;28;20092;-60
2024/02/07 09:53:40;;;;;;;9.52;2.05;;;;;;;;;;4996591;28;20054;-61
2024/02/07 09:56:07;;;;;;;13.88;2.83;;;;;;;;;;4993142;28;20109;-60
2024/02/07 09:58:33;;;;;;;8.70;2.10;;;;;;;;;;4991731;28;20053;-57
2024/02/07 10:00:59;;;;;;;15.02;2.58;;;;;;;;;;4995138;28;20271;-59
2024/02/07 10:03:28;;;;;;;16.33;2.90;;;;;;;;;;4997260;28;20030;-63
2024/02/07 10:05:57;;;;;;;13.40;3.15;;;;;;;;;;4989832;28;20118;-65
2024/02/07 10:08:24;;;;;;;11.63;3.72;;;;;;;;;;4992412;28;20028;-65
2024/02/07 10:10:51;;;;;;;11.93;3.25;;;;;;;;;;4991229;28;20022;-65
2024/02/07 10:13:17;;;;;;;14.80;3.30;;;;;;;;;;5000283;28;20030;-65
2024/02/07 10:15:43;;;;;;;21.60;5.55;;;;;;;;;;4991310;28;20451;-64
2024/02/07 10:18:10;;;;;;;11.00;3.42;;;;;;;;;;4999840;28;20031;-65
2024/02/07 10:20:36;;;;;;;14.25;3.33;;;;;;;;;;4987793;28;20521;-64
2024/02/07 10:23:06;;;;;;;17.50;3.88;;;;;;;;;;4992211;28;20022;-65
2024/02/07 10:25:32;;;;;;;13.77;5.45;;;;;;;;;;4986978;28;20026;-66
2024/02/07 10:28:01;;;;;;;18.60;4.28;;;;;;;;;;4994582;28;20033;-65
2024/02/07 10:30:27;;;;;;;15.98;4.22;;;;;;;;;;4990076;28;20161;-65
2024/02/07 10:32:55;;;;;;;11.10;3.90;;;;;;;;;;4995707;28;20114;-65
2024/02/07 10:35:21;;;;;;;19.15;4.70;;;;;;;;;;4992751;28;20460;-65
2024/02/07 10:37:47;;;;;;;15.75;4.10;;;;;;;;;;4994753;28;20181;-66
2024/02/07 10:40:13;;;;;;;15.40;4.65;;;;;;;;;;4988349;28;20061;-67
2024/02/07 10:42:39;;;;;;;15.35;5.10;;;;;;;;;;4993868;28;20027;-67
2024/02/07 10:45:09;;;;;;;18.65;6.05;;;;;;;;;;4994418;28;20038;-66
2024/02/07 10:47:36;;;;;;;12.95;5.43;;;;;;;;;;4987944;28;20031;-67
2024/02/07 10:50:03;;;;;;;16.88;4.65;;;;;;;;;;4993304;28;20486;-66
2024/02/07 10:52:29;;;;;;;10.80;5.00;;;;;;;;;;4992358;28;20038;-65
2024/02/07 10:54:56;;;;;;;19.75;5.28;;;;;;;;;;4993536;28;20116;-65
2024/02/07 10:57:28;;;;;;;11.68;4.78;;;;;;;;;;4993360;28;20115;-66
2024/02/07 10:59:57;;;;;;;14.23;3.80;;;;;;;;;;4989992;28;20508;-66
2024/02/07 11:02:24;;;;;;;13.55;3.92;;;;;;;;;;4997032;28;20117;-66
2024/02/07 11:04:50;;;;;;;13.68;3.22;;;;;;;;;;4998103;28;20692;-66
2024/02/07 11:07:17;;;;;;;8.13;2.78;;;;;;;;;;4996245;28;20038;-64
2024/02/07 11:09:47;;;;;;;15.80;3.17;;;;;;;;;;4994097;28;20062;-64
2024/02/07 11:12:14;;;;;;;9.52;2.35;;;;;;;;;;4992590;28;20229;-65
2024/02/07 11:14:41;;;;;;;11.70;1.60;;;;;;;;;;4999093;28;20080;-65
2024/02/07 11:17:08;;;;;;;10.07;2.47;;;;;;;;;;4993855;28;20128;-64
2024/02/07 11:19:34;;;;;;;9.50;1.75;;;;;;;;;;4998539;28;20041;-64
2024/02/07 11:22:01;;;;;;;15.63;1.80;;;;;;;;;;4994318;28;20065;-64
2024/02/07 11:24:27;;;;;;;5.10;1.65;;;;;;;;;;5004864;28;20014;-64
2024/02/07 11:26:53;;;;;;;6.97;1.52;;;;;;;;;;4992881;28;20026;-65
2024/02/07 11:29:19;;;;;;;11.65;1.90;;;;;;;;;;4998403;28;20372;-64
2024/02/07 11:31:46;;;;;;;12.15;2.17;;;;;;;;;;4992014;28;20026;-64
2024/02/07 11:34:12;;;;;;;6.38;2.03;;;;;;;;;;4998929;28;20049;-64
2024/02/07 11:36:38;;;;;;;12.40;1.83;;;;;;;;;;4991900;28;20449;-65
2024/02/07 11:39:14;;;;;;;6.95;1.90;;;;;;;;;;4996297;28;20042;-66
2024/02/07 11:41:46;;;;;;;6.22;1.02;;;;;;;;;;4993995;28;20041;-65
2024/02/07 11:44:15;;;;;;;6.47;0.68;;;;;;;;;;4998504;28;20400;-65
2024/02/07 11:46:50;;;;;;;2.78;0.70;;;;;;;;;;4996429;28;20022;-66
2024/02/07 11:49:18;;;;;;;2.03;0.70;;;;;;;;;;4994691;28;20034;-65
2024/02/07 11:51:44;;;;;;;6.68;0.90;;;;;;;;;;4991524;28;20030;-66
2024/02/07 11:54:10;;;;;;;5.95;1.38;;;;;;;;;;4992189;28;20528;-66
2024/02/07 11:56:36;;;;;;;6.45;1.75;;;;;;;;;;4996694;28;20064;-65
2024/02/07 11:59:02;;;;;;;5.30;1.10;;;;;;;;;;4990539;28;20492;-67
2024/02/07 12:01:28;;;;;;;3.38;1.35;;;;;;;;;;4995904;28;20037;-66
2024/02/07 12:04:00;;;;;;;6.30;1.33;;;;;;;;;;4992655;28;20021;-67
2024/02/07 12:06:26;;;;;;;5.38;1.30;;;;;;;;;;4984781;28;20058;-66
2024/02/07 12:08:53;;;;;;;5.25;1.20;;;;;;;;;;4994204;28;20062;-66
2024/02/07 12:11:19;;;;;;;8.93;1.63;;;;;;;;;;4997938;28;20034;-66
2024/02/07 12:13:45;;;;;;;6.53;1.42;;;;;;;;;;4993478;28;20243;-66
2024/02/07 12:16:11;;;;;;;4.63;1.00;;;;;;;;;;4992212;28;20565;-65
2024/02/07 12:18:37;;;;;;;8.35;1.67;;;;;;;;;;4992867;28;20045;-65
2024/02/07 12:21:04;;;;;;;7.75;1.27;;;;;;;;;;4993118;28;20038;-66
2024/02/07 12:23:30;;;;;;;14.82;1.73;;;;;;;;;;4988356;28;20022;-65
2024/02/07 12:25:59;;;;;;;1.95;1.08;;;;;;;;;;4994345;28;20081;-65
2024/02/07 12:28:26;;;;;;;9.23;1.73;;;;;;;;;;4991534;28;20504;-66
2024/02/07 12:30:59;;;;;;;5.47;1.30;;;;;;;;;;4999069;28;20109;-66
2024/02/07 12:33:25;;;;;;;4.18;1.73;;;;;;;;;;4991203;28;20026;-65
2024/02/07 12:35:55;;;;;;;8.52;1.83;;;;;;;;;;4991731;28;20632;-65
2024/02/07 12:38:24;;;;;;;9.10;2.10;;;;;;;;;;4992470;28;20053;-66
2024/02/07 12:40:51;;;;;;;5.20;1.60;;;;;;;;;;4998000;28;20481;-66
2024/02/07 12:43:17;;;;;;;4.70;1.63;;;;;;;;;;4995007;28;20030;-66
2024/02/07 12:45:54;;;;;;;5.07;1.48;;;;;;;;;;4993941;28;20031;-66
2024/02/07 12:48:22;;;;;;;9.57;1.60;;;;;;;;;;4987965;28;20038;-65
2024/02/07 12:50:48;;;;;;;3.60;1.23;;;;;;;;;;4985430;28;20632;-66
2024/02/07 12:53:14;;;;;;;3.15;1.23;;;;;;;;;;4991957;28;20123;-65
2024/02/07 12:55:40;;;;;;;6.13;1.35;;;;;;;;;;4991407;28;20116;-66
2024/02/07 12:58:06;;;;;;;4.88;1.30;;;;;;;;;;4992047;28;20113;-66
2024/02/07 13:00:32;;;;;;;9.52;3.92;;;;;;;;;;4993299;28;20029;-66
2024/02/07 13:02:58;;;;;;;12.05;1.25;;;;;;;;;;4994510;28;20041;-66
2024/02/07 13:05:24;;;;;;;8.20;1.40;;;;;;;;;;4994851;28;20031;-66
2024/02/07 13:07:50;;;;;;;10.43;2.97;;;;;;;;;;4992659;28;20022;-66
2024/02/07 13:10:17;;;;;;;8.55;1.67;;;;;;;;;;4994553;28;20437;-66
2024/02/07 13:12:43;;;;;;;6.32;1.73;;;;;;;;;;4998668;28;20106;-66
2024/02/07 13:15:09;;;;;;;14.00;3.45;;;;;;;;;;4987663;28;20140;-66
2024/02/07 13:17:36;;;;;;;27.02;9.23;;;;;;;;;;4992769;28;20025;-66
2024/02/07 13:20:06;;;;;;;13.80;5.68;;;;;;;;;;4988630;28;20566;-67
2024/02/07 13:22:32;;;;;;;11.88;1.75;;;;;;;;;;4988244;28;20025;-65
2024/02/07 13:25:07;;;;;;;4.95;1.27;;;;;;;;;;4992511;28;20515;-65
2024/02/07 13:27:33;;;;;;;17.27;2.17;;;;;;;;;;4988330;28;20427;-66
2024/02/07 13:29:59;;;;;;;8.98;1.23;;;;;;;;;;4989386;28;20026;-66
2024/02/07 13:32:25;;;;;;;12.40;2.67;;;;;;;;;;4987253;28;20034;-65
2024/02/07 13:34:51;;;;;;;4.70;2.08;;;;;;;;;;4986878;28;20384;-65
2024/02/07 13:37:17;;;;;;;8.82;2.80;;;;;;;;;;4990984;28;20034;-64
2024/02/07 13:39:43;;;;;;;10.95;2.30;;;;;;;;;;4998264;28;20033;-66
2024/02/07 13:42:09;;;;;;;18.00;2.40;;;;;;;;;;4990697;28;20152;-66
2024/02/07 13:44:35;;;;;;;5.18;1.52;;;;;;;;;;4988822;28;20134;-65
2024/02/07 13:47:01;;;;;;;6.45;1.58;;;;;;;;;;4988088;28;20526;-66
2024/02/07 13:49:27;;;;;;;8.88;2.10;;;;;;;;;;4992220;28;20018;-66
2024/02/07 13:51:53;;;;;;;19.10;2.13;;;;;;;;;;4986381;28;20045;-65
2024/02/07 13:54:19;;;;;;;7.45;2.03;;;;;;;;;;4987391;28;20025;-64
2024/02/07 13:56:45;;;;;;;18.50;2.33;;;;;;;;;;4983088;28;20026;-64
2024/02/07 13:59:11;;;;;;;13.90;2.00;;;;;;;;;;4988918;28;20397;-65
2024/02/07 14:01:37;;;;;;;6.53;1.70;;;;;;;;;;4988512;28;20030;-65
2024/02/07 14:04:04;;;;;;;7.20;1.50;;;;;;;;;;4994545;28;20374;-65
2024/02/07 14:06:30;;;;;;;5.13;1.73;;;;;;;;;;4993612;28;20084;-65
2024/02/07 14:08:57;;;;;;;7.90;1.38;;;;;;;;;;4985437;28;20488;-65
2024/02/07 14:11:22;;;;;;;6.18;1.30;;;;;;;;;;4985688;28;20034;-65
2024/02/07 14:13:48;;;;;;;8.50;1.55;;;;;;;;;;4986032;28;20038;-65
2024/02/07 14:16:14;;;;;;;5.15;1.30;;;;;;;;;;4990025;28;20038;-65
2024/02/07 14:18:40;;;;;;;7.05;1.52;;;;;;;;;;4982565;28;20129;-65
2024/02/07 14:21:07;;;;;;;10.43;1.30;;;;;;;;;;4984161;28;20034;-64
2024/02/07 14:23:33;;;;;;;6.93;2.30;;;;;;;;;;4988759;28;20796;-66
2024/02/07 14:25:59;;;;;;;5.28;1.88;;;;;;;;;;4983715;28;20018;-64
2024/02/07 14:28:25;;;;;;;11.07;1.60;;;;;;;;;;4989181;28;20504;-63
2024/02/07 14:30:52;;;;;;;12.70;1.52;;;;;;;;;;4986922;28;20113;-63
2024/02/07 14:33:18;;;;;;;9.65;1.80;;;;;;;;;;4993971;28;20025;-64
2024/02/07 14:35:45;;;;;;;5.68;1.52;;;;;;;;;;4989441;28;20032;-65
2024/02/07 14:38:12;;;;;;;10.05;1.92;;;;;;;;;;4996176;28;20061;-64
2024/02/07 14:40:38;;;;;;;13.23;1.77;;;;;;;;;;4993290;28;20026;-65
2024/02/07 14:43:04;;;;;;;5.63;1.90;;;;;;;;;;4991506;28;20030;-67
2024/02/07 14:45:30;;;;;;;6.18;2.50;;;;;;;;;;4990022;28;20038;-66
2024/02/07 14:47:56;;;;;;;5.57;1.83;;;;;;;;;;4992008;28;20033;-67
2024/02/07 14:50:22;;;;;;;5.60;2.08;;;;;;;;;;4992284;28;20030;-66
2024/02/07 14:52:48;;;;;;;7.13;2.70;;;;;;;;;;4991824;28;20038;-65
2024/02/07 14:55:14;;;;;;;6.53;2.45;;;;;;;;;;4982816;28;20035;-64
2024/02/07 14:57:40;;;;;;;6.55;2.33;;;;;;;;;;4982303;28;20084;-64
2024/02/07 15:00:07;;;;;;;9.60;2.05;;;;;;;;;;4987549;28;20050;-64
2024/02/07 15:02:33;;;;;;;5.07;1.73;;;;;;;;;;4989405;28;20373;-65
2024/02/07 15:04:59;;;;;;;12.30;2.45;;;;;;;;;;4986627;28;20048;-65
2024/02/07 15:07:24;;;;;;;7.75;2.00;;;;;;;;;;4984038;28;20030;-65
2024/02/07 15:09:50;;;;;;;8.45;2.17;;;;;;;;;;4986275;28;20034;-66
2024/02/07 15:12:16;;;;;;;9.40;2.65;;;;;;;;;;4986559;28;20026;-65
2024/02/07 15:14:42;;;;;;;6.63;2.70;;;;;;;;;;4990790;28;20022;-66
2024/02/07 15:17:08;;;;;;;13.02;2.60;;;;;;;;;;4986838;28;20034;-64
2024/02/07 15:19:34;;;;;;;10.15;2.40;;;;;;;;;;4991598;28;20093;-65
2024/02/07 15:22:01;;;;;;;12.48;2.83;;;;;;;;;;4989215;28;20126;-65
2024/02/07 15:24:27;;;;;;;9.20;2.95;;;;;;;;;;4990470;28;20516;-65
2024/02/07 15:26:53;;;;;;;8.82;3.60;;;;;;;;;;4985406;28;20149;-65
2024/02/07 15:29:19;;;;;;;8.85;3.40;;;;;;;;;;4985161;28;20025;-64
2024/02/07 15:31:45;;;;;;;7.55;2.90;;;;;;;;;;4988895;28;20036;-65
2024/02/07 15:34:11;;;;;;;5.78;2.30;;;;;;;;;;4991352;28;20126;-66
2024/02/07 15:36:37;;;;;;;9.20;2.60;;;;;;;;;;4989647;28;20026;-65